21°C
Woerden, The Nederlands
Taal:  Nederlands
Updated17/09/2021 17:20 
 

Nearby METAR Reports

EHAM - Amsterdam/Schiph, Netherlands
Distance from station: N 27km
Updated: 17/09/2021 16:55
Few Clouds
Few Clouds
 Wind van W
Wind: W 19 km/h
Temperatuur: 20°C
Dauwpunt: 15°C
Vochtigheid: 73%
Barometer: 1015 hPa
Clouds: Few Clouds
Visibility: 10 km
Cloud details: Few Clouds 610 m
2021/09/17 14:55 EHAM 171455Z 27010KT 9999 FEW020 20/15 Q1015 NOSIG
EHRD - Rotterdam Airpor, Netherlands
Distance from station: WZW 30km
Updated: 17/09/2021 16:55
Few Clouds
Few Clouds
 Wind van W
Wind: W 13 km/h
Temperatuur: 21°C
Dauwpunt: 14°C
Vochtigheid: 64%
Barometer: 1015 hPa
Clouds: Few Clouds
Visibility: 10 km
Cloud details: Few Clouds 762 m
2021/09/17 14:55 EHRD 171455Z AUTO 26007KT 220V310 9999 FEW025 21/14 Q1015 NOSIG
 
EHGR - Gilze-Rijen Rnla, Netherlands
Distance from station: Z 57km
Updated: 17/09/2021 16:55
Zwaar bewolkt
Zwaar bewolkt
 Wind van WNW
Wind: WNW 9 km/h
Temperatuur: 21°C
Dauwpunt: 13°C
Vochtigheid: 60%
Barometer: 1015 hPa
Clouds: Zwaar bewolkt
Visibility: 10 km
Cloud details: Few Clouds 975 m
Gedeeltelijk bewolkt 1128 m
Zwaar bewolkt 8534 m
2021/09/17 14:55 EHGR 171455Z AUTO 30005KT 240V350 9999 FEW032 SCT037 OVC280 21/13 Q1015 BLU
EHDL - Deelen Rnlafb, Netherlands
Distance from station: O 71km
Updated: 17/09/2021 16:55
Zwaar bewolkt
Zwaar bewolkt
 Wind van WZW
Wind: WZW 11 km/h
Temperatuur: 21°C
Dauwpunt: 13°C
Vochtigheid: 60%
Barometer: 1015 hPa
Clouds: Zwaar bewolkt
Visibility: 10 km
Cloud details: Zwaar bewolkt 1951 m
2021/09/17 14:55 EHDL 171455Z AUTO 25006KT 210V350 9999 OVC064 21/13 Q1015 BLU
 
EHVK - Volkel Rnlafb, Netherlands
Distance from station: ZO 77km
Updated: 17/09/2021 16:55
Zwaar bewolkt
Zwaar bewolkt
 Wind van WZW
Wind: WZW 13 km/h
Temperatuur: 22°C
Dauwpunt: 12°C
Vochtigheid: 53%
Barometer: 1015 hPa
Clouds: Zwaar bewolkt
Visibility: 10 km
Cloud details: Few Clouds 1189 m
Gedeeltelijk bewolkt 2377 m
Zwaar bewolkt 8230 m
2021/09/17 14:55 EHVK 171455Z AUTO 25007KT 210V280 9999 FEW039 SCT078 OVC270 22/12 Q1015 BLU
EHWO - Woensdrecht Rnla, Netherlands
Distance from station: ZZW 78km
Updated: 17/09/2021 16:55
Zwaar bewolkt
Zwaar bewolkt
 Wind van NW
Wind: NW 11 km/h
Temperatuur: 21°C
Dauwpunt: 12°C
Vochtigheid: 57%
Barometer: 1015 hPa
Clouds: Zwaar bewolkt
Visibility: 10 km
Cloud details: Zwaar bewolkt 9449 m
2021/09/17 14:55 EHWO 171455Z AUTO 31006KT 230V330 9999 OVC310 21/12 Q1015 BLU
 
EHEH - Eindhoven Rnlafb, Netherlands
Distance from station: ZZO 81km
Updated: 17/09/2021 16:55
Meestal bewolkt
Meestal bewolkt
 Wind van varies
Wind: varies 9 km/h
Temperatuur: 22°C
Dauwpunt: 13°C
Vochtigheid: 57%
Barometer: 1015 hPa
Clouds: Meestal bewolkt
Visibility: 10 km
Cloud details: Meestal bewolkt 8839 m
Meestal bewolkt 10973 m
2021/09/17 14:55 EHEH 171455Z AUTO VRB05KT 9999 BKN290 BKN360 22/13 Q1015 BLU NOSIG
EHSC - Goeree Le Sea, Netherlands
Distance from station: W 81km
Updated: 17/09/2021 16:55

 Wind van WZW
Wind: WZW 9 km/h
Temperatuur: 18°C
Dauwpunt: 15°C
Vochtigheid: 83%
Barometer: 1015 hPa
Visibility: 10 km
2021/09/17 14:55 EHSC 171455Z AUTO 24005KT 9999 ///////// 18/15 Q1015 W19/H6